createdAt,value
2022-10-02T00:00:55.052Z,88.06
2022-10-02T00:03:37.889Z,88.12
2022-10-02T00:06:24.963Z,88.05
2022-10-02T00:08:59.895Z,87.99
2022-10-02T00:11:44.131Z,88.19
2022-10-02T00:14:16.981Z,88.18
2022-10-02T00:16:52.154Z,88.10
2022-10-02T00:19:20.512Z,87.96
2022-10-02T00:22:06.592Z,88.18
2022-10-02T00:24:46.602Z,88.25
2022-10-02T00:27:27.054Z,88.34
2022-10-02T00:30:00.192Z,88.41
2022-10-02T00:32:41.498Z,88.30
2022-10-02T00:35:16.151Z,88.32
2022-10-02T00:38:03.045Z,88.40
2022-10-02T00:40:46.140Z,88.42
2022-10-02T00:43:17.417Z,88.58
2022-10-02T00:45:51.554Z,88.61
2022-10-02T00:48:19.778Z,88.73
2022-10-02T00:51:13.146Z,88.61
2022-10-02T00:53:49.795Z,88.81
2022-10-02T00:56:42.047Z,88.71
2022-10-02T00:59:37.932Z,88.89
2022-10-02T01:05:50.011Z,88.79
2022-10-02T01:08:19.550Z,89.00
2022-10-02T01:10:48.197Z,88.92
2022-10-02T01:13:16.281Z,88.95
2022-10-02T01:15:51.449Z,88.87
2022-10-02T01:18:19.659Z,88.86
2022-10-02T01:20:54.832Z,88.87
2022-10-02T01:23:53.744Z,89.03
2022-10-02T01:26:21.903Z,89.05
2022-10-02T01:28:50.113Z,89.12
2022-10-02T01:31:18.420Z,88.98
2022-10-02T01:33:49.905Z,89.03
2022-10-02T01:36:18.350Z,89.02
2022-10-02T01:38:49.377Z,89.41
2022-10-02T01:41:17.483Z,89.29
2022-10-02T01:43:50.844Z,89.21
2022-10-02T01:46:31.975Z,89.29
2022-10-02T01:49:21.556Z,89.53
2022-10-02T01:52:04.808Z,89.57
2022-10-02T01:55:11.233Z,89.61
2022-10-02T01:57:59.835Z,89.68
2022-10-02T02:00:36.935Z,89.81
2022-10-02T02:03:14.872Z,89.78
2022-10-02T02:05:56.706Z,89.59
2022-10-02T02:08:30.940Z,89.48
2022-10-02T02:11:11.654Z,89.57
2022-10-02T02:13:45.887Z,89.69
2022-10-02T02:16:36.530Z,89.56
2022-10-02T02:19:31.301Z,89.73
2022-10-02T02:22:04.312Z,89.69
2022-10-02T02:24:44.708Z,89.82
2022-10-02T02:27:19.670Z,89.91
2022-10-02T02:29:52.631Z,89.85
2022-10-02T02:32:28.307Z,89.93
2022-10-02T02:35:20.798Z,89.97
2022-10-02T02:37:52.659Z,89.98
2022-10-02T02:40:26.249Z,90.14
2022-10-02T02:43:03.496Z,90.10
2022-10-02T02:45:45.816Z,89.98
2022-10-02T02:48:25.868Z,90.23
2022-10-02T02:51:03.922Z,90.18
2022-10-02T02:53:35.309Z,90.43
2022-10-02T02:56:06.850Z,90.22
2022-10-02T02:58:51.541Z,90.45
2022-10-02T03:01:19.987Z,90.34
2022-10-02T03:03:48.496Z,90.39
2022-10-02T03:06:17.496Z,90.37
2022-10-02T03:08:47.814Z,90.47
2022-10-02T03:11:30.977Z,90.62
2022-10-02T03:14:20.661Z,90.82
2022-10-02T03:17:07.427Z,90.80
2022-10-02T03:19:41.781Z,91.01
2022-10-02T03:22:24.106Z,91.07
2022-10-02T03:24:54.922Z,91.20
2022-10-02T03:27:52.110Z,91.22
2022-10-02T03:30:24.508Z,91.40
2022-10-02T03:32:53.840Z,91.36
2022-10-02T03:35:25.291Z,91.46
2022-10-02T03:37:58.050Z,91.37
2022-10-02T03:40:27.503Z,91.40
2022-10-02T03:42:58.528Z,91.68
2022-10-02T03:45:49.948Z,91.64
2022-10-02T03:48:18.186Z,91.81
2022-10-02T03:50:46.805Z,91.88
2022-10-02T03:53:17.371Z,91.71
2022-10-02T03:55:52.549Z,91.81
2022-10-02T03:58:20.892Z,91.97
2022-10-02T04:01:04.466Z,91.91
2022-10-02T04:03:36.949Z,92.13
2022-10-02T04:06:23.569Z,92.00
2022-10-02T04:08:59.915Z,92.20
2022-10-02T04:11:35.548Z,92.31
2022-10-02T04:14:42.833Z,92.16
2022-10-02T04:17:34.377Z,92.22
2022-10-02T04:20:18.665Z,92.24
2022-10-02T04:22:53.455Z,92.32
2022-10-02T04:25:25.555Z,92.28
2022-10-02T04:27:59.115Z,92.34
2022-10-02T04:30:27.518Z,92.10
2022-10-02T04:33:05.925Z,92.28
2022-10-02T04:35:48.939Z,92.23
2022-10-02T04:38:34.366Z,92.26
2022-10-02T04:41:20.574Z,92.23
2022-10-02T04:44:06.546Z,92.26
2022-10-02T04:46:40.611Z,92.19
2022-10-02T04:49:50.425Z,92.36
2022-10-02T04:52:32.695Z,92.26
2022-10-02T04:55:07.431Z,92.31
2022-10-02T04:57:45.046Z,92.39
2022-10-02T05:00:21.995Z,92.48
2022-10-02T05:02:55.715Z,92.32
2022-10-02T05:05:54.584Z,92.37
2022-10-02T05:08:50.331Z,92.30
2022-10-02T05:11:33.179Z,92.26
2022-10-02T05:14:09.301Z,92.21
2022-10-02T05:17:05.228Z,92.21
2022-10-02T05:19:51.062Z,92.24
2022-10-02T05:22:37.548Z,92.20
2022-10-02T05:25:30.144Z,92.22
2022-10-02T05:28:16.853Z,92.15
2022-10-02T05:31:04.321Z,92.13
2022-10-02T05:33:39.140Z,91.99
2022-10-02T05:36:19.376Z,91.92
2022-10-02T05:39:07.536Z,91.75
2022-10-02T05:41:44.395Z,91.61
2022-10-02T05:44:18.427Z,91.53
2022-10-02T05:47:01.767Z,91.50
2022-10-02T05:49:36.092Z,91.64
2022-10-02T05:52:11.884Z,91.34
2022-10-02T05:55:16.948Z,91.27
2022-10-02T05:57:54.172Z,91.21
2022-10-02T06:00:48.179Z,91.20
2022-10-02T06:03:35.263Z,90.83
2022-10-02T06:06:15.746Z,90.73
2022-10-02T06:08:52.005Z,90.65
2022-10-02T06:11:54.735Z,90.53
2022-10-02T06:14:39.609Z,90.86
2022-10-02T06:17:16.580Z,90.54
2022-10-02T06:20:03.388Z,90.32
2022-10-02T06:22:52.187Z,90.18
2022-10-02T06:25:28.963Z,90.17
2022-10-02T06:28:09.789Z,90.11
2022-10-02T06:30:41.889Z,89.99
2022-10-02T06:33:19.304Z,90.12
2022-10-02T06:35:53.219Z,90.28
2022-10-02T06:38:52.156Z,90.22
2022-10-02T06:41:33.640Z,90.05
2022-10-02T06:44:26.817Z,89.93
2022-10-02T06:47:22.303Z,89.88
2022-10-02T06:50:13.420Z,89.93
2022-10-02T06:53:12.051Z,89.96
2022-10-02T06:56:05.733Z,89.96
2022-10-02T06:58:55.642Z,90.24
2022-10-02T07:01:47.162Z,90.32
2022-10-02T07:04:21.345Z,90.42
2022-10-02T07:07:12.899Z,90.10
2022-10-02T07:10:14.552Z,89.78
2022-10-02T07:12:57.882Z,89.83
2022-10-02T07:15:57.206Z,89.86
2022-10-02T07:18:49.469Z,89.73
2022-10-02T07:21:41.974Z,89.84
2022-10-02T07:24:51.882Z,89.87
2022-10-02T07:27:23.645Z,89.55
2022-10-02T07:29:52.062Z,89.28
2022-10-02T07:32:38.427Z,89.41
2022-10-02T07:35:33.937Z,89.31
2022-10-02T07:38:21.148Z,89.37
2022-10-02T07:41:07.690Z,89.29
2022-10-02T07:43:52.234Z,89.55
2022-10-02T07:46:54.778Z,89.47
2022-10-02T07:49:41.700Z,89.13
2022-10-02T07:52:28.019Z,88.91
2022-10-02T07:55:14.723Z,89.02
2022-10-02T07:58:08.667Z,89.31
2022-10-02T08:00:52.962Z,89.42
2022-10-02T08:03:25.974Z,89.57
2022-10-02T08:05:56.106Z,89.56
2022-10-02T08:08:55.606Z,89.70
2022-10-02T08:11:30.399Z,89.15
2022-10-02T08:14:18.271Z,89.12
2022-10-02T08:16:50.808Z,89.38
2022-10-02T08:19:39.570Z,88.95
2022-10-02T08:22:22.656Z,88.58
2022-10-02T08:25:28.582Z,88.26
2022-10-02T08:28:02.299Z,88.21
2022-10-02T08:30:30.548Z,88.66
2022-10-02T08:32:59.133Z,88.59
2022-10-02T08:35:47.907Z,87.84
2022-10-02T08:38:33.745Z,87.25
2022-10-02T08:41:05.163Z,87.71
2022-10-02T08:43:39.217Z,88.03
2022-10-02T08:46:29.181Z,86.92
2022-10-02T08:49:33.806Z,85.86
2022-10-02T08:52:11.044Z,85.34
2022-10-02T08:54:49.639Z,85.23
2022-10-02T08:57:36.143Z,85.52
2022-10-02T09:00:33.976Z,85.19
2022-10-02T09:03:31.141Z,84.53
2022-10-02T09:06:38.806Z,84.42
2022-10-02T09:09:47.976Z,84.26
2022-10-02T09:13:13.690Z,83.84
2022-10-02T09:15:48.379Z,83.44
2022-10-02T09:18:18.351Z,82.71
2022-10-02T09:20:55.211Z,82.37
2022-10-02T09:24:00.532Z,82.10
2022-10-02T09:26:56.562Z,81.86
2022-10-02T09:30:04.284Z,81.96
2022-10-02T09:32:47.559Z,81.65
2022-10-02T09:35:37.183Z,81.53
2022-10-02T09:38:59.688Z,81.46
2022-10-02T09:41:50.180Z,81.69
2022-10-02T09:45:11.837Z,81.27
2022-10-02T09:48:11.108Z,80.88
2022-10-02T09:50:47.877Z,80.91
2022-10-02T09:53:40.237Z,80.88
2022-10-02T09:56:23.587Z,80.97
2022-10-02T09:59:09.988Z,80.65
2022-10-02T10:02:15.867Z,80.31
2022-10-02T10:05:08.962Z,80.46
2022-10-02T10:07:58.657Z,81.14
2022-10-02T10:10:50.202Z,81.90
2022-10-02T10:13:49.576Z,81.61
2022-10-02T10:17:05.759Z,81.23
2022-10-02T10:20:19.887Z,81.18
2022-10-02T10:23:18.744Z,80.62
2022-10-02T10:26:15.400Z,80.85
2022-10-02T10:28:46.314Z,79.79
2022-10-02T10:31:43.820Z,79.76
2022-10-02T10:34:30.298Z,78.74
2022-10-02T10:37:26.904Z,78.54
2022-10-02T10:40:37.192Z,77.93
2022-10-02T10:43:44.917Z,78.12
2022-10-02T10:46:21.558Z,76.83
2022-10-02T10:49:10.518Z,76.66
2022-10-02T10:51:51.681Z,76.31
2022-10-02T10:54:44.861Z,76.76
2022-10-02T10:57:26.038Z,76.56
2022-10-02T11:00:30.941Z,76.31
2022-10-02T11:03:40.212Z,75.83
2022-10-02T11:06:23.232Z,76.27
2022-10-02T11:08:58.523Z,76.36
2022-10-02T11:11:31.670Z,76.03
2022-10-02T11:14:41.280Z,75.98
2022-10-02T11:17:54.237Z,76.26
2022-10-02T11:20:45.843Z,75.13
2022-10-02T11:23:34.030Z,74.97
2022-10-02T11:26:16.727Z,74.98
2022-10-02T11:29:19.957Z,73.80
2022-10-02T11:31:53.801Z,74.46
2022-10-02T11:34:59.579Z,74.96
2022-10-02T11:38:04.115Z,75.07
2022-10-02T11:40:54.456Z,75.81
2022-10-02T11:43:44.287Z,76.61
2022-10-02T11:46:19.443Z,77.76
2022-10-02T11:49:12.680Z,78.63
2022-10-02T11:51:57.140Z,79.29
2022-10-02T11:54:45.018Z,79.56
2022-10-02T11:57:35.370Z,79.93
2022-10-02T12:00:08.798Z,80.14
2022-10-02T12:03:10.894Z,79.74
2022-10-02T12:05:53.547Z,78.74
2022-10-02T12:09:02.455Z,78.75
2022-10-02T12:12:06.419Z,78.54
2022-10-02T12:14:35.087Z,78.63
2022-10-02T12:17:24.605Z,79.09
2022-10-02T12:20:24.062Z,79.11
2022-10-02T12:23:22.888Z,79.18
2022-10-02T12:26:33.217Z,79.33
2022-10-02T12:29:10.245Z,79.51
2022-10-02T12:31:54.693Z,79.76
2022-10-02T12:34:44.583Z,79.96
2022-10-02T12:37:25.317Z,80.25
2022-10-02T12:40:06.397Z,79.99
2022-10-02T12:42:46.676Z,79.73
2022-10-02T12:45:38.604Z,80.51
2022-10-02T12:48:15.184Z,80.08
2022-10-02T12:51:05.984Z,79.48
2022-10-02T12:53:52.783Z,79.33
2022-10-02T12:56:36.345Z,79.05
2022-10-02T12:59:10.754Z,78.46
2022-10-02T13:02:12.629Z,77.68
2022-10-02T13:05:23.447Z,77.91
2022-10-02T13:08:10.400Z,78.40
2022-10-02T13:11:04.015Z,77.88
2022-10-02T13:14:00.698Z,77.27
2022-10-02T13:16:48.806Z,76.78
2022-10-02T13:19:31.151Z,76.40
2022-10-02T13:22:20.263Z,75.76
2022-10-02T13:25:00.557Z,75.09
2022-10-02T13:27:42.355Z,74.80
2022-10-02T13:30:16.285Z,74.89
2022-10-02T13:33:06.170Z,74.55
2022-10-02T13:35:55.955Z,74.56
2022-10-02T13:38:24.820Z,74.44
2022-10-02T13:41:24.960Z,74.38
2022-10-02T13:44:07.772Z,73.51
2022-10-02T13:47:00.828Z,73.50
2022-10-02T13:49:47.828Z,72.66
2022-10-02T13:53:04.442Z,72.83
2022-10-02T13:55:41.360Z,72.44
2022-10-02T13:58:12.779Z,72.27
2022-10-02T14:01:08.663Z,71.89
2022-10-02T14:03:55.657Z,72.08
2022-10-02T14:06:34.964Z,71.08
2022-10-02T14:09:23.646Z,70.96
2022-10-02T14:12:13.610Z,71.55
2022-10-02T14:15:00.550Z,71.85
2022-10-02T14:17:51.429Z,72.05
2022-10-02T14:20:29.029Z,72.17
2022-10-02T14:23:32.391Z,72.10
2022-10-02T14:26:28.082Z,72.36
2022-10-02T14:29:20.277Z,72.89
2022-10-02T14:32:21.215Z,73.10
2022-10-02T14:35:20.095Z,73.53
2022-10-02T14:38:12.396Z,73.70
2022-10-02T14:40:53.998Z,74.18
2022-10-02T14:43:46.087Z,74.36
2022-10-02T14:46:20.930Z,74.89
2022-10-02T14:49:07.919Z,75.22
2022-10-02T14:52:04.017Z,75.73
2022-10-02T14:54:38.098Z,75.99
2022-10-02T14:57:28.577Z,76.40
2022-10-02T15:00:03.406Z,76.66
2022-10-02T15:03:02.232Z,76.76
2022-10-02T15:05:59.766Z,77.15
2022-10-02T15:08:34.298Z,77.52
2022-10-02T15:11:05.311Z,77.70
2022-10-02T15:13:58.136Z,77.87
2022-10-02T15:16:53.644Z,78.32
2022-10-02T15:19:31.370Z,78.61
2022-10-02T15:22:07.371Z,78.70
2022-10-02T15:24:45.824Z,78.76
2022-10-02T15:27:22.931Z,78.80
2022-10-02T15:30:16.939Z,79.03
2022-10-02T15:33:07.446Z,79.36
2022-10-02T15:36:15.475Z,79.76
2022-10-02T15:39:20.761Z,80.31
2022-10-02T15:42:04.760Z,80.68
2022-10-02T15:44:57.837Z,80.88
2022-10-02T15:47:40.902Z,80.78
2022-10-02T15:50:32.761Z,80.76
2022-10-02T15:53:04.023Z,80.71
2022-10-02T15:55:38.986Z,80.67
2022-10-02T15:58:07.142Z,80.61
2022-10-02T16:01:02.900Z,80.36
2022-10-02T16:03:50.915Z,80.38
2022-10-02T16:06:50.817Z,80.78
2022-10-02T16:09:34.861Z,80.74
2022-10-02T16:12:12.012Z,81.13
2022-10-02T16:15:03.219Z,81.24
2022-10-02T16:17:41.452Z,81.54
2022-10-02T16:20:19.045Z,81.58
2022-10-02T16:23:14.271Z,81.72
2022-10-02T16:26:35.284Z,82.27
2022-10-02T16:29:14.426Z,82.48
2022-10-02T16:31:52.065Z,82.59
2022-10-02T16:34:39.249Z,82.34
2022-10-02T16:37:34.284Z,82.51
2022-10-02T16:40:28.516Z,82.88
2022-10-02T16:43:57.929Z,82.94
2022-10-02T16:51:44.575Z,82.82
2022-10-02T16:54:57.789Z,83.08
2022-10-02T16:58:28.735Z,83.24
2022-10-02T17:01:43.379Z,83.37
2022-10-02T17:05:11.742Z,83.49
2022-10-02T17:08:02.002Z,83.78
2022-10-02T17:10:33.918Z,83.63
2022-10-02T17:13:29.334Z,83.46
2022-10-02T17:16:11.954Z,83.53
2022-10-02T17:18:54.798Z,83.70
2022-10-02T17:21:45.448Z,83.52
2022-10-02T17:24:51.704Z,83.64
2022-10-02T17:27:35.502Z,83.70
2022-10-02T17:30:27.118Z,83.61
2022-10-02T17:33:20.268Z,83.78
2022-10-02T17:35:54.367Z,83.72
2022-10-02T17:38:25.748Z,83.67
2022-10-02T17:41:09.110Z,83.92
2022-10-02T17:43:53.488Z,83.84
2022-10-02T17:46:42.811Z,83.97
2022-10-02T17:49:23.037Z,83.92
2022-10-02T17:52:34.579Z,84.11
2022-10-02T17:55:40.205Z,84.07
2022-10-02T17:58:32.776Z,84.38
2022-10-02T18:01:07.510Z,84.59
2022-10-02T18:03:53.758Z,84.50
2022-10-02T18:06:38.292Z,84.63
2022-10-02T18:09:24.617Z,84.79
2022-10-02T18:12:01.799Z,84.79
2022-10-02T18:14:48.622Z,84.71
2022-10-02T18:17:38.470Z,84.66
2022-10-02T18:20:34.268Z,84.54
2022-10-02T18:23:20.775Z,84.58
2022-10-02T18:26:14.345Z,84.45
2022-10-02T18:29:03.708Z,84.16
2022-10-02T18:31:57.977Z,83.88
2022-10-02T18:34:29.265Z,84.20
2022-10-02T18:37:20.268Z,84.22
2022-10-02T18:40:03.543Z,84.04
2022-10-02T18:43:08.097Z,83.86
2022-10-02T18:45:57.770Z,83.95
2022-10-02T18:48:44.129Z,84.31
2022-10-02T18:51:31.950Z,84.40
2022-10-02T18:54:19.129Z,84.26
2022-10-02T18:57:13.107Z,84.25
2022-10-02T18:59:59.386Z,84.29
2022-10-02T19:02:53.820Z,84.21
2022-10-02T19:05:31.125Z,84.07
2022-10-02T19:08:05.102Z,83.91
2022-10-02T19:10:33.458Z,83.89
2022-10-02T19:13:23.449Z,84.19
2022-10-02T19:15:54.430Z,84.03
2022-10-02T19:18:27.805Z,84.47
2022-10-02T19:20:55.942Z,84.40
2022-10-02T19:23:56.657Z,84.26
2022-10-02T19:26:28.032Z,84.69
2022-10-02T19:29:25.434Z,84.76
2022-10-02T19:31:57.803Z,84.75
2022-10-02T19:34:31.798Z,84.82
2022-10-02T19:37:05.171Z,84.84
2022-10-02T19:39:41.571Z,84.72
2022-10-02T19:42:17.019Z,84.85
2022-10-02T19:44:49.849Z,85.09
2022-10-02T19:47:32.523Z,85.05
2022-10-02T19:50:04.039Z,84.96
2022-10-02T19:52:47.814Z,85.08
2022-10-02T19:55:21.943Z,84.96
2022-10-02T19:57:54.385Z,85.05
2022-10-02T20:00:22.986Z,85.01
2022-10-02T20:02:56.124Z,85.26
2022-10-02T20:05:27.482Z,85.27
2022-10-02T20:08:07.017Z,85.35
2022-10-02T20:10:40.103Z,85.54
2022-10-02T20:13:37.260Z,85.79
2022-10-02T20:16:41.372Z,85.74
2022-10-02T20:19:31.927Z,85.92
2022-10-02T20:22:07.803Z,85.97
2022-10-02T20:24:58.719Z,85.99
2022-10-02T20:27:48.420Z,86.15
2022-10-02T20:30:19.535Z,86.12
2022-10-02T20:32:54.502Z,86.25
2022-10-02T20:35:34.881Z,86.33
2022-10-02T20:38:31.618Z,86.59
2022-10-02T20:41:07.243Z,86.82
2022-10-02T20:43:49.633Z,86.93
2022-10-02T20:46:55.021Z,87.18
2022-10-02T20:49:40.540Z,87.27
2022-10-02T20:52:49.338Z,87.28
2022-10-02T20:55:23.553Z,87.28
2022-10-02T20:58:22.614Z,87.47
2022-10-02T21:01:16.379Z,87.59
2022-10-02T21:04:26.539Z,87.62
2022-10-02T21:07:19.539Z,87.54
2022-10-02T21:10:12.475Z,87.70
2022-10-02T21:13:24.391Z,87.66
2022-10-02T21:16:25.388Z,87.73
2022-10-02T21:19:05.646Z,87.73
2022-10-02T21:22:05.453Z,87.61
2022-10-02T21:24:36.314Z,87.38
2022-10-02T21:27:18.607Z,87.43
2022-10-02T21:30:04.158Z,87.56
2022-10-02T21:32:49.415Z,87.70
2022-10-02T21:35:42.597Z,87.71
2022-10-02T21:38:32.387Z,87.85
2022-10-02T21:41:19.706Z,88.07
2022-10-02T21:44:28.744Z,88.08
2022-10-02T21:47:21.375Z,88.28
2022-10-02T21:50:10.817Z,88.43
2022-10-02T21:53:11.416Z,88.56
2022-10-02T21:56:08.795Z,88.77
2022-10-02T21:58:52.098Z,88.80
2022-10-02T22:02:07.630Z,88.93
2022-10-02T22:04:55.395Z,88.92
2022-10-02T22:07:41.254Z,89.02
2022-10-02T22:10:15.249Z,89.15
2022-10-02T22:13:11.322Z,89.17
2022-10-02T22:15:51.109Z,89.33
2022-10-02T22:18:25.301Z,89.09
2022-10-02T22:21:09.173Z,89.04
2022-10-02T22:24:06.628Z,89.21
2022-10-02T22:26:53.327Z,89.09
2022-10-02T22:29:41.497Z,89.18
2022-10-02T22:33:06.263Z,89.02
2022-10-02T22:35:53.119Z,89.05
2022-10-02T22:38:38.248Z,89.32
2022-10-02T22:41:17.955Z,89.20
2022-10-02T22:44:10.658Z,89.44
2022-10-02T22:47:04.699Z,89.45
2022-10-02T22:49:38.973Z,89.56
2022-10-02T22:52:28.999Z,89.55
2022-10-02T22:55:24.479Z,89.38
2022-10-02T22:57:58.695Z,89.32
2022-10-02T23:00:34.149Z,89.31
2022-10-02T23:03:15.159Z,89.10
2022-10-02T23:06:31.566Z,89.46
2022-10-02T23:09:31.634Z,89.49
2022-10-02T23:12:15.401Z,89.53
2022-10-02T23:14:49.679Z,89.48
2022-10-02T23:17:50.660Z,89.50
2022-10-02T23:20:29.067Z,89.27
2022-10-02T23:23:08.397Z,89.30
2022-10-02T23:25:47.188Z,89.32
2022-10-02T23:28:15.727Z,89.47
2022-10-02T23:30:49.003Z,89.30
2022-10-02T23:33:37.331Z,89.42
2022-10-02T23:36:19.927Z,89.38
2022-10-02T23:38:59.505Z,89.63
2022-10-02T23:41:40.767Z,89.62
2022-10-02T23:44:32.303Z,89.46
2022-10-02T23:47:25.340Z,89.50
2022-10-02T23:49:54.777Z,89.76
2022-10-02T23:52:33.378Z,89.82
2022-10-02T23:55:14.289Z,90.00
2022-10-02T23:58:00.189Z,90.22
